Time;durP1;ratioP1;P1;durP2;ratioP2;P2;SDS_P1;SDS_P2;PMS_P1;PMS_P2;Temp;Humidity;BMP_temperature;BMP_pressure;BME280_temperature;BME280_humidity;BME280_pressure;Samples;Min_cycle;Max_cycle;Signal;HPM_P1;HPM_P2
2022/01/16 00:00:40;;;;;;;;;;;3.30;99.90;;;;;;5026555;28;20356;-70
2022/01/16 00:05:54;;;;;;;;;;;3.30;99.90;;;;;;5026831;28;20169;-72
2022/01/16 00:08:19;;;;;;;;;;;3.40;99.90;;;;;;5025958;28;20194;-70
2022/01/16 00:10:45;;;;;;;;;;;3.40;99.90;;;;;;5025938;28;19913;-71
2022/01/16 00:13:10;;;;;;;;;;;3.40;99.90;;;;;;5019337;28;19922;-70
2022/01/16 00:15:36;;;;;;;;;;;3.40;99.90;;;;;;5001081;28;19909;-70
2022/01/16 00:20:31;;;;;;;;;;;3.40;99.90;;;;;;5021442;28;19940;-69
2022/01/16 00:22:57;;;;;;;;;;;3.30;99.90;;;;;;5015231;28;20399;-70
2022/01/16 00:25:23;;;;;;;;;;;3.30;99.90;;;;;;5021564;28;20382;-71
2022/01/16 00:27:48;;;;;;;;;;;3.30;99.90;;;;;;5023807;28;19970;-70
2022/01/16 00:30:14;;;;;;;;;;;3.40;99.90;;;;;;5003915;28;20545;-70
2022/01/16 00:32:40;;;;;;;;;;;3.40;99.90;;;;;;5017655;28;19913;-70
2022/01/16 00:35:06;;;;;;;;;;;3.50;99.90;;;;;;5015402;28;19967;-71
2022/01/16 00:37:32;;;;;;;;;;;3.60;99.90;;;;;;5027740;28;20007;-70
2022/01/16 00:39:57;;;;;;;;;;;3.60;99.90;;;;;;5024838;28;20004;-71
2022/01/16 00:42:23;;;;;;;;;;;3.50;99.90;;;;;;5032662;28;20016;-72
2022/01/16 00:44:48;;;;;;;;;;;3.50;99.90;;;;;;5028682;28;19914;-72
2022/01/16 00:47:14;;;;;;;;;;;3.50;99.90;;;;;;5029534;28;19909;-72
2022/01/16 00:49:41;;;;;;;;;;;3.60;99.90;;;;;;5028661;28;20023;-70
2022/01/16 00:52:07;;;;;;;;;;;3.60;99.90;;;;;;5026987;28;20205;-71
2022/01/16 00:54:33;;;;;;;;;;;3.60;99.90;;;;;;5030085;28;19978;-71
2022/01/16 00:56:58;;;;;;;;;;;3.60;99.90;;;;;;5028952;28;20321;-70
2022/01/16 00:59:23;;;;;;;;;;;3.60;99.90;;;;;;5028583;28;19909;-70
2022/01/16 01:01:49;;;;;;;;;;;3.70;99.90;;;;;;5027606;28;20000;-71
2022/01/16 01:04:15;;;;;;;;;;;3.60;99.90;;;;;;5029323;28;19985;-72
2022/01/16 01:06:40;;;;;;;;;;;3.70;99.90;;;;;;5031042;28;19910;-73
2022/01/16 01:09:06;;;;;;;;;;;3.70;99.90;;;;;;5030136;28;19913;-73
2022/01/16 01:11:32;;;;;;;;;;;3.70;99.90;;;;;;5029984;28;20321;-70
2022/01/16 01:16:38;;;;;;;;;;;3.70;99.90;;;;;;5026482;28;19917;-71
2022/01/16 01:19:03;;;;;;;;;;;3.70;99.90;;;;;;5026017;28;20016;-70
2022/01/16 01:21:30;;;;;;;;;;;3.70;99.90;;;;;;5027334;28;20137;-72
2022/01/16 01:23:57;;;;;;;;;;;3.70;99.90;;;;;;5026403;28;20008;-70
2022/01/16 01:26:24;;;;;;;;;;;3.80;99.90;;;;;;5026461;28;19964;-70
2022/01/16 01:28:50;;;;;;;;;;;3.90;99.90;;;;;;5027852;28;19920;-70
2022/01/16 01:31:16;;;;;;;;;;;3.90;99.90;;;;;;5011233;28;20046;-70
2022/01/16 01:33:41;;;;;;;;;;;3.90;99.90;;;;;;5027446;28;19925;-72
2022/01/16 01:36:07;;;;;;;;;;;3.90;99.90;;;;;;5028268;28;19909;-73
2022/01/16 01:38:32;;;;;;;;;;;3.80;99.90;;;;;;5026287;28;19925;-76
2022/01/16 01:40:58;;;;;;;;;;;3.80;99.90;;;;;;5025800;28;19913;-72
2022/01/16 01:51:19;;;;;;;;;;;3.60;99.90;;;;;;5027034;28;20270;-71
2022/01/16 01:53:45;;;;;;;;;;;3.70;99.90;;;;;;5009593;28;20337;-70
2022/01/16 01:56:12;;;;;;;;;;;3.80;99.90;;;;;;5027020;28;19913;-70
2022/01/16 01:58:38;;;;;;;;;;;3.80;99.90;;;;;;5008690;28;19913;-69
2022/01/16 02:01:04;;;;;;;;;;;3.80;99.90;;;;;;5007512;28;19913;-71
2022/01/16 02:03:42;;;;;;;;;;;3.80;99.90;;;;;;5009199;28;20096;-71
2022/01/16 02:06:27;;;;;;;;;;;3.80;99.90;;;;;;5030591;28;19913;-71
2022/01/16 02:08:54;;;;;;;;;;;3.70;99.90;;;;;;5025227;28;19921;-68
2022/01/16 02:11:24;;;;;;;;;;;3.70;99.90;;;;;;5038165;28;20482;-73
2022/01/16 02:13:59;;;;;;;;;;;3.80;99.90;;;;;;5031196;28;19917;-69
2022/01/16 02:28:09;;;;;;;;;;;3.70;99.90;;;;;;5034878;28;20013;-71
2022/01/16 02:36:04;;;;;;;;;;;3.60;99.90;;;;;;5034311;28;19952;-71
2022/01/16 02:38:30;;;;;;;;;;;3.70;99.90;;;;;;5033059;28;20004;-69
2022/01/16 02:40:59;;;;;;;;;;;3.70;99.90;;;;;;5030781;28;19948;-70
2022/01/16 02:43:31;;;;;;;;;;;3.70;99.90;;;;;;5027220;28;20049;-75
2022/01/16 02:46:35;;;;;;;;;;;3.70;99.90;;;;;;5027019;28;19916;-73
2022/01/16 02:48:44;;;;;;;;;;;3.70;99.90;;;;;;5026029;28;19909;-72
2022/01/16 02:51:10;;;;;;;;;;;3.70;99.90;;;;;;5025926;28;19984;-70
2022/01/16 02:53:36;;;;;;;;;;;3.60;99.90;;;;;;5026330;28;19920;-70
2022/01/16 02:56:01;;;;;;;;;;;3.70;99.90;;;;;;5026685;28;19920;-72
2022/01/16 02:58:27;;;;;;;;;;;3.60;99.90;;;;;;5026205;28;20003;-71
2022/01/16 03:00:52;;;;;;;;;;;3.70;99.90;;;;;;5023926;28;20303;-72
2022/01/16 03:03:18;;;;;;;;;;;3.60;99.90;;;;;;5025410;28;19928;-70
2022/01/16 03:05:43;;;;;;;;;;;3.70;99.90;;;;;;5024798;28;19917;-71
2022/01/16 03:08:09;;;;;;;;;;;3.60;99.90;;;;;;5040472;28;19913;-69
2022/01/16 03:13:03;;;;;;;;;;;3.70;99.90;;;;;;5025987;28;19917;-72
2022/01/16 03:15:28;;;;;;;;;;;3.70;99.90;;;;;;5026445;28;19966;-70
2022/01/16 03:23:10;;;;;;;;;;;3.70;99.90;;;;;;5025450;28;20430;-71
2022/01/16 03:25:36;;;;;;;;;;;3.80;99.90;;;;;;5027469;28;19980;-74
2022/01/16 03:28:01;;;;;;;;;;;3.70;99.90;;;;;;5028723;28;20409;-69
2022/01/16 03:30:27;;;;;;;;;;;3.60;99.90;;;;;;5032858;28;20016;-69
2022/01/16 03:32:52;;;;;;;;;;;3.60;99.90;;;;;;5036433;28;19971;-69
2022/01/16 03:35:18;;;;;;;;;;;3.70;99.90;;;;;;5037725;28;19936;-69
2022/01/16 03:37:44;;;;;;;;;;;3.70;99.90;;;;;;5036891;28;19948;-69
2022/01/16 03:40:11;;;;;;;;;;;3.70;99.90;;;;;;5029947;28;19967;-69
2022/01/16 03:42:40;;;;;;;;;;;3.70;99.90;;;;;;5028811;28;19914;-69
2022/01/16 03:45:06;;;;;;;;;;;3.60;99.90;;;;;;5024960;28;20276;-71
2022/01/16 03:47:32;;;;;;;;;;;3.70;99.90;;;;;;5025593;28;19917;-70
2022/01/16 03:49:57;;;;;;;;;;;3.70;99.90;;;;;;5024324;28;20390;-69
2022/01/16 03:52:23;;;;;;;;;;;3.70;99.90;;;;;;5025668;28;20062;-71
2022/01/16 03:54:48;;;;;;;;;;;3.60;99.90;;;;;;5014066;28;19932;-67
2022/01/16 03:57:13;;;;;;;;;;;3.70;99.90;;;;;;5017334;28;20402;-69
2022/01/16 03:59:39;;;;;;;;;;;3.70;99.90;;;;;;5025036;28;19947;-70
2022/01/16 04:02:05;;;;;;;;;;;3.70;99.90;;;;;;5020090;28;19937;-70
2022/01/16 04:04:30;;;;;;;;;;;3.70;99.90;;;;;;5022445;28;20286;-69
2022/01/16 04:06:56;;;;;;;;;;;3.70;99.90;;;;;;5021116;28;19916;-70
2022/01/16 04:09:22;;;;;;;;;;;3.80;99.90;;;;;;5039290;28;19909;-71
2022/01/16 04:11:56;;;;;;;;;;;3.70;99.90;;;;;;5026689;28;20008;-70
2022/01/16 04:15:31;;;;;;;;;;;3.80;99.90;;;;;;5022230;28;19972;-69
2022/01/16 04:17:07;;;;;;;;;;;3.70;99.90;;;;;;5018037;28;19920;-73
2022/01/16 04:19:33;;;;;;;;;;;3.70;99.90;;;;;;5010895;28;19910;-69
2022/01/16 04:21:58;;;;;;;;;;;3.70;99.90;;;;;;5023659;28;19913;-71
2022/01/16 04:24:23;;;;;;;;;;;3.80;99.90;;;;;;5022092;28;19913;-71
2022/01/16 04:26:49;;;;;;;;;;;3.80;99.90;;;;;;5041420;28;20406;-69
2022/01/16 04:29:14;;;;;;;;;;;3.80;99.90;;;;;;5029265;28;19917;-73
2022/01/16 04:31:40;;;;;;;;;;;3.80;99.90;;;;;;5032282;28;19909;-70
2022/01/16 04:34:05;;;;;;;;;;;3.80;99.90;;;;;;5027872;28;19913;-72
2022/01/16 04:36:31;;;;;;;;;;;3.80;99.90;;;;;;5028266;28;20339;-72
2022/01/16 04:38:56;;;;;;;;;;;3.90;99.90;;;;;;5025357;28;19955;-72
2022/01/16 04:44:06;;;;;;;;;;;3.90;99.90;;;;;;5018853;28;20332;-69
2022/01/16 04:46:32;;;;;;;;;;;3.90;99.90;;;;;;5022465;28;19910;-69
2022/01/16 04:48:59;;;;;;;;;;;3.90;99.90;;;;;;5026967;28;19909;-71
2022/01/16 04:51:25;;;;;;;;;;;3.90;99.90;;;;;;5027688;28;20114;-70
2022/01/16 04:53:50;;;;;;;;;;;4.00;99.90;;;;;;5026744;28;20409;-70
2022/01/16 04:56:16;;;;;;;;;;;4.00;99.90;;;;;;5028692;28;19917;-70
2022/01/16 04:58:42;;;;;;;;;;;4.00;99.90;;;;;;5031479;28;19909;-68
2022/01/16 05:01:08;;;;;;;;;;;4.00;99.90;;;;;;5017680;28;20298;-69
2022/01/16 05:03:33;;;;;;;;;;;4.10;99.90;;;;;;5016623;28;19909;-70
2022/01/16 05:05:59;;;;;;;;;;;4.10;99.90;;;;;;5033302;28;20002;-71
2022/01/16 05:08:25;;;;;;;;;;;4.00;99.90;;;;;;5034141;28;19920;-71
2022/01/16 05:10:54;;;;;;;;;;;3.90;99.90;;;;;;5037787;28;19913;-71
2022/01/16 05:18:36;;;;;;;;;;;4.00;99.90;;;;;;5027582;28;19924;-71
2022/01/16 05:21:02;;;;;;;;;;;4.00;99.90;;;;;;5027883;28;20185;-69
2022/01/16 05:23:28;;;;;;;;;;;4.00;99.90;;;;;;5028252;28;19916;-72
2022/01/16 05:25:53;;;;;;;;;;;4.00;99.90;;;;;;5025026;28;19917;-70
2022/01/16 05:28:19;;;;;;;;;;;4.00;99.90;;;;;;5017908;28;19913;-70
2022/01/16 05:30:45;;;;;;;;;;;4.00;99.90;;;;;;5023279;28;19924;-70
2022/01/16 05:33:10;;;;;;;;;;;4.10;99.90;;;;;;5000905;28;19917;-70
2022/01/16 05:35:36;;;;;;;;;;;4.10;99.90;;;;;;4998359;28;20016;-70
2022/01/16 05:38:01;;;;;;;;;;;4.10;99.90;;;;;;5020535;28;19909;-68
2022/01/16 05:40:27;;;;;;;;;;;4.10;99.90;;;;;;5027828;28;19988;-69
2022/01/16 05:42:52;;;;;;;;;;;4.10;99.90;;;;;;5029976;28;20366;-70
2022/01/16 05:45:18;;;;;;;;;;;4.10;99.90;;;;;;5005658;28;19917;-70
2022/01/16 05:47:43;;;;;;;;;;;4.20;99.90;;;;;;5025426;28;20398;-71
2022/01/16 05:50:09;;;;;;;;;;;4.30;99.90;;;;;;5022637;28;19920;-69
2022/01/16 05:52:35;;;;;;;;;;;4.30;99.90;;;;;;5019769;28;19924;-70
2022/01/16 05:55:00;;;;;;;;;;;4.20;99.90;;;;;;5016915;28;20331;-69
2022/01/16 05:57:26;;;;;;;;;;;4.20;99.90;;;;;;5017570;28;20456;-69
2022/01/16 05:59:51;;;;;;;;;;;4.30;99.90;;;;;;5020187;28;19917;-69
2022/01/16 06:02:17;;;;;;;;;;;4.30;99.90;;;;;;5001504;28;19998;-68
2022/01/16 06:04:42;;;;;;;;;;;4.40;99.90;;;;;;5025082;28;19917;-70
2022/01/16 06:07:08;;;;;;;;;;;4.40;99.90;;;;;;5021165;28;19955;-70
2022/01/16 06:09:33;;;;;;;;;;;4.40;99.90;;;;;;5047598;28;19938;-70
2022/01/16 06:11:59;;;;;;;;;;;4.40;99.90;;;;;;5011371;28;19913;-70
2022/01/16 06:14:25;;;;;;;;;;;4.50;99.90;;;;;;5026343;28;19921;-69
2022/01/16 06:16:51;;;;;;;;;;;4.70;99.90;;;;;;5025579;28;20130;-70
2022/01/16 06:19:16;;;;;;;;;;;4.70;99.90;;;;;;5026130;28;19913;-69
2022/01/16 06:21:42;;;;;;;;;;;4.70;99.90;;;;;;5015681;28;20610;-70
2022/01/16 06:24:07;;;;;;;;;;;4.70;99.90;;;;;;5029528;28;19959;-72
2022/01/16 06:26:33;;;;;;;;;;;4.70;99.90;;;;;;5022373;28;19921;-70
2022/01/16 06:28:59;;;;;;;;;;;4.70;99.90;;;;;;5016548;28;20298;-70
2022/01/16 06:31:24;;;;;;;;;;;4.80;99.90;;;;;;5016535;28;19921;-71
2022/01/16 06:33:50;;;;;;;;;;;4.80;99.90;;;;;;5017322;28;20382;-71
2022/01/16 06:36:16;;;;;;;;;;;4.90;99.90;;;;;;5019569;28;19978;-69
2022/01/16 06:38:41;;;;;;;;;;;4.90;99.90;;;;;;5011480;28;19987;-69
2022/01/16 06:41:09;;;;;;;;;;;4.90;99.90;;;;;;5018464;28;19917;-71
2022/01/16 06:43:34;;;;;;;;;;;5.00;99.90;;;;;;5001518;28;20062;-70
2022/01/16 06:46:00;;;;;;;;;;;5.10;99.90;;;;;;5022066;28;20008;-73
2022/01/16 06:48:25;;;;;;;;;;;5.20;99.90;;;;;;5024267;28;19913;-71
2022/01/16 06:50:51;;;;;;;;;;;5.20;99.90;;;;;;5037664;28;19917;-70
2022/01/16 06:53:16;;;;;;;;;;;5.30;99.90;;;;;;5026206;28;19924;-70
2022/01/16 06:55:41;;;;;;;;;;;5.40;99.90;;;;;;5013297;28;19917;-70
2022/01/16 06:58:07;;;;;;;;;;;5.50;99.90;;;;;;5025232;28;20384;-71
2022/01/16 07:00:32;;;;;;;;;;;5.50;99.90;;;;;;5009028;28;19913;-68
2022/01/16 07:02:58;;;;;;;;;;;5.50;99.90;;;;;;5028618;28;19909;-69
2022/01/16 07:05:23;;;;;;;;;;;5.60;99.90;;;;;;5008970;28;19917;-70
2022/01/16 07:07:49;;;;;;;;;;;5.70;99.90;;;;;;5027034;28;19994;-69
2022/01/16 07:10:14;;;;;;;;;;;5.70;99.90;;;;;;5026647;28;20353;-69
2022/01/16 07:12:40;;;;;;;;;;;5.70;99.90;;;;;;5025551;28;19913;-69
2022/01/16 07:15:06;;;;;;;;;;;5.70;99.90;;;;;;5025531;28;19917;-71
2022/01/16 07:17:31;;;;;;;;;;;5.80;99.90;;;;;;5008893;28;19913;-69
2022/01/16 07:19:56;;;;;;;;;;;5.90;99.90;;;;;;5026584;28;19913;-69
2022/01/16 07:22:23;;;;;;;;;;;5.90;99.90;;;;;;5027156;28;19924;-70
2022/01/16 07:24:50;;;;;;;;;;;5.90;99.90;;;;;;5019745;28;19963;-69
2022/01/16 07:27:16;;;;;;;;;;;5.90;99.90;;;;;;5026676;28;20008;-69
2022/01/16 07:29:41;;;;;;;;;;;5.80;99.90;;;;;;5013675;28;19924;-70
2022/01/16 07:32:07;;;;;;;;;;;5.70;99.90;;;;;;5028197;28;19913;-70
2022/01/16 07:34:33;;;;;;;;;;;5.60;99.90;;;;;;5029199;28;19917;-71
2022/01/16 07:36:58;;;;;;;;;;;5.50;99.90;;;;;;5029086;28;19913;-70
2022/01/16 07:39:24;;;;;;;;;;;5.40;99.90;;;;;;5027374;28;20950;-70
2022/01/16 07:41:49;;;;;;;;;;;5.40;99.90;;;;;;5016393;28;20390;-70
2022/01/16 07:44:15;;;;;;;;;;;5.40;99.90;;;;;;5018763;28;19909;-70
2022/01/16 07:46:40;;;;;;;;;;;5.30;99.90;;;;;;5026600;28;19920;-69
2022/01/16 07:49:06;;;;;;;;;;;5.30;99.90;;;;;;5031610;28;19924;-67
2022/01/16 07:51:32;;;;;;;;;;;5.20;99.90;;;;;;5027938;28;19914;-72
2022/01/16 07:53:57;;;;;;;;;;;5.20;99.90;;;;;;5035604;28;19917;-69
2022/01/16 07:56:23;;;;;;;;;;;5.20;99.90;;;;;;5044503;28;19917;-71
2022/01/16 07:58:48;;;;;;;;;;;5.20;99.90;;;;;;5028378;28;19909;-70
2022/01/16 08:01:14;;;;;;;;;;;5.20;99.90;;;;;;5028736;28;19921;-70
2022/01/16 08:03:39;;;;;;;;;;;5.20;99.90;;;;;;5037857;28;19913;-70
2022/01/16 08:06:05;;;;;;;;;;;5.20;99.90;;;;;;5030430;28;19979;-70
2022/01/16 08:08:30;;;;;;;;;;;5.10;99.90;;;;;;5028213;28;19988;-69
2022/01/16 08:10:56;;;;;;;;;;;5.10;99.90;;;;;;5029454;28;20008;-70
2022/01/16 08:13:21;;;;;;;;;;;5.20;99.90;;;;;;5029437;28;19913;-70
2022/01/16 08:15:47;;;;;;;;;;;5.10;99.90;;;;;;5027263;28;20324;-70
2022/01/16 08:18:12;;;;;;;;;;;5.20;99.90;;;;;;5029799;28;20023;-70
2022/01/16 08:20:38;;;;;;;;;;;5.20;99.90;;;;;;5029736;28;20590;-70
2022/01/16 08:23:03;;;;;;;;;;;5.10;99.90;;;;;;5029050;28;19960;-70
2022/01/16 08:25:29;;;;;;;;;;;5.10;99.90;;;;;;5031091;28;19948;-71
2022/01/16 08:27:54;;;;;;;;;;;5.10;99.90;;;;;;5032069;28;19991;-71
2022/01/16 08:30:20;;;;;;;;;;;5.10;99.90;;;;;;5031261;28;19924;-70
2022/01/16 08:32:46;;;;;;;;;;;5.10;99.90;;;;;;5022235;28;20314;-72
2022/01/16 08:35:12;;;;;;;;;;;5.10;99.90;;;;;;5025759;28;19913;-71
2022/01/16 08:37:38;;;;;;;;;;;5.10;99.90;;;;;;5023965;28;19921;-71
2022/01/16 08:40:04;;;;;;;;;;;5.00;99.90;;;;;;5022122;28;19914;-71
2022/01/16 08:42:30;;;;;;;;;;;5.10;99.90;;;;;;5026438;28;20187;-70
2022/01/16 08:44:55;;;;;;;;;;;5.10;99.90;;;;;;5023098;28;19924;-70
2022/01/16 08:47:21;;;;;;;;;;;5.10;99.90;;;;;;5020535;28;20307;-72
2022/01/16 08:49:46;;;;;;;;;;;5.00;99.90;;;;;;5012596;28;19913;-70
2022/01/16 08:52:12;;;;;;;;;;;5.00;99.90;;;;;;5019381;28;19920;-70
2022/01/16 08:54:37;;;;;;;;;;;5.00;99.90;;;;;;5024676;28;20293;-72
2022/01/16 08:57:03;;;;;;;;;;;5.00;99.90;;;;;;5020524;28;20358;-69
2022/01/16 08:59:29;;;;;;;;;;;5.00;99.90;;;;;;5007618;28;19913;-71
2022/01/16 09:01:55;;;;;;;;;;;5.10;99.90;;;;;;5000662;28;19919;-71
2022/01/16 09:04:20;;;;;;;;;;;5.10;99.90;;;;;;5020695;28;20019;-69
2022/01/16 09:06:46;;;;;;;;;;;5.10;99.90;;;;;;5020996;28;19948;-71
2022/01/16 09:09:11;;;;;;;;;;;5.10;99.90;;;;;;5018012;28;19918;-74
2022/01/16 09:11:39;;;;;;;;;;;5.10;99.90;;;;;;5025268;28;19923;-72
2022/01/16 09:14:04;;;;;;;;;;;5.00;99.90;;;;;;5008531;28;19917;-73
2022/01/16 09:16:31;;;;;;;;;;;5.00;99.90;;;;;;5026262;28;20012;-72
2022/01/16 09:18:56;;;;;;;;;;;5.10;99.90;;;;;;5025705;28;19923;-69
2022/01/16 09:21:22;;;;;;;;;;;5.10;99.90;;;;;;5025880;28;20365;-72
2022/01/16 09:23:48;;;;;;;;;;;5.10;99.90;;;;;;5030911;28;19913;-70
2022/01/16 09:26:14;;;;;;;;;;;5.10;99.90;;;;;;5029145;28;20342;-69
2022/01/16 09:28:40;;;;;;;;;;;5.10;99.90;;;;;;5025967;28;19913;-73
2022/01/16 09:31:06;;;;;;;;;;;5.10;99.90;;;;;;5031285;28;20067;-70
2022/01/16 09:33:31;;;;;;;;;;;5.20;99.90;;;;;;5026782;28;20441;-70
2022/01/16 09:35:57;;;;;;;;;;;5.20;99.90;;;;;;5026191;28;19920;-71
2022/01/16 09:38:22;;;;;;;;;;;5.20;99.90;;;;;;5004203;28;20190;-70
2022/01/16 09:40:48;;;;;;;;;;;5.20;99.90;;;;;;5034774;28;19913;-69
2022/01/16 09:43:14;;;;;;;;;;;5.20;99.90;;;;;;5046917;28;20134;-70
2022/01/16 09:45:40;;;;;;;;;;;5.20;99.90;;;;;;5058469;28;19913;-71
2022/01/16 09:48:05;;;;;;;;;;;5.20;99.90;;;;;;5044196;28;19959;-72
2022/01/16 09:50:31;;;;;;;;;;;5.20;99.90;;;;;;5034824;28;19914;-71
2022/01/16 09:52:57;;;;;;;;;;;5.30;99.90;;;;;;5029489;28;20104;-72
2022/01/16 09:55:22;;;;;;;;;;;5.30;99.90;;;;;;5006566;28;19914;-71
2022/01/16 09:57:49;;;;;;;;;;;5.30;99.90;;;;;;5009947;28;20369;-75
2022/01/16 10:00:15;;;;;;;;;;;5.30;99.90;;;;;;5025450;28;19948;-76
2022/01/16 10:02:41;;;;;;;;;;;5.30;99.90;;;;;;5010740;28;19976;-69
2022/01/16 10:05:25;;;;;;;;;;;5.30;99.90;;;;;;5021125;28;20274;-73
2022/01/16 10:07:53;;;;;;;;;;;5.30;99.90;;;;;;5010831;28;20493;-70
2022/01/16 10:10:20;;;;;;;;;;;5.40;99.90;;;;;;5025778;28;19917;-71
2022/01/16 10:12:51;;;;;;;;;;;5.40;99.90;;;;;;5003749;28;19971;-74
2022/01/16 10:15:21;;;;;;;;;;;5.40;99.90;;;;;;5020736;28;19917;-71
2022/01/16 10:17:48;;;;;;;;;;;5.40;99.90;;;;;;5021189;28;19923;-71
2022/01/16 10:20:16;;;;;;;;;;;5.50;99.90;;;;;;5022703;28;19913;-70
2022/01/16 10:22:46;;;;;;;;;;;5.50;99.90;;;;;;5018167;28;19982;-69
2022/01/16 10:25:13;;;;;;;;;;;5.50;99.90;;;;;;5020531;28;19975;-69
2022/01/16 10:27:39;;;;;;;;;;;5.50;99.90;;;;;;5024535;28;20066;-73
2022/01/16 10:30:08;;;;;;;;;;;5.60;99.90;;;;;;5016884;28;19970;-71
2022/01/16 10:32:37;;;;;;;;;;;5.60;99.90;;;;;;5023986;28;19917;-72
2022/01/16 10:35:06;;;;;;;;;;;5.70;99.90;;;;;;5020622;28;19914;-69
2022/01/16 10:37:31;;;;;;;;;;;5.70;99.90;;;;;;5023980;28;19989;-71
2022/01/16 10:40:00;;;;;;;;;;;5.80;99.90;;;;;;5039219;28;19913;-71
2022/01/16 10:42:26;;;;;;;;;;;5.90;99.90;;;;;;5025915;28;19922;-78
2022/01/16 10:44:56;;;;;;;;;;;5.90;99.90;;;;;;5018039;28;19913;-69
2022/01/16 10:47:23;;;;;;;;;;;5.80;99.90;;;;;;5021892;28;20031;-77
2022/01/16 10:50:03;;;;;;;;;;;5.90;99.90;;;;;;5016633;28;19913;-71
2022/01/16 10:52:29;;;;;;;;;;;5.90;99.90;;;;;;5017724;28;20274;-72
2022/01/16 10:55:04;;;;;;;;;;;6.00;99.90;;;;;;5016135;28;19961;-71
2022/01/16 10:57:30;;;;;;;;;;;6.00;99.90;;;;;;5014686;28;19921;-71
2022/01/16 11:00:11;;;;;;;;;;;6.10;99.90;;;;;;5017450;28;19932;-75
2022/01/16 11:02:37;;;;;;;;;;;6.10;99.90;;;;;;5049145;28;20008;-74
2022/01/16 11:05:07;;;;;;;;;;;6.20;99.90;;;;;;5024787;28;20000;-70
2022/01/16 11:07:32;;;;;;;;;;;6.10;99.90;;;;;;5026770;28;20136;-70
2022/01/16 11:09:58;;;;;;;;;;;6.10;99.90;;;;;;5031357;28;19921;-77
2022/01/16 11:12:23;;;;;;;;;;;6.10;99.90;;;;;;5042471;28;19915;-74
2022/01/16 11:14:49;;;;;;;;;;;6.20;99.90;;;;;;5036026;28;20489;-72
2022/01/16 11:17:14;;;;;;;;;;;6.20;99.90;;;;;;5035733;28;19917;-72
2022/01/16 11:19:40;;;;;;;;;;;6.30;99.90;;;;;;5036612;28;19934;-70
2022/01/16 11:22:10;;;;;;;;;;;6.30;99.90;;;;;;5029979;28;19965;-70
2022/01/16 11:24:47;;;;;;;;;;;6.30;99.90;;;;;;5036224;28;19913;-70
2022/01/16 11:27:16;;;;;;;;;;;6.30;99.90;;;;;;5017395;28;19944;-70
2022/01/16 11:29:42;;;;;;;;;;;6.30;99.90;;;;;;5024324;28;21016;-72
2022/01/16 11:32:08;;;;;;;;;;;6.40;99.90;;;;;;5016457;28;19909;-72
2022/01/16 11:34:35;;;;;;;;;;;6.40;99.90;;;;;;5020420;28;19940;-69
2022/01/16 11:37:04;;;;;;;;;;;6.40;99.90;;;;;;5026126;28;19968;-72
2022/01/16 11:39:35;;;;;;;;;;;6.50;99.90;;;;;;5024334;28;20123;-72
2022/01/16 11:42:02;;;;;;;;;;;6.40;99.90;;;;;;5025822;28;20289;-71
2022/01/16 11:44:29;;;;;;;;;;;6.40;99.90;;;;;;5027185;28;19955;-72
2022/01/16 11:47:06;;;;;;;;;;;6.40;99.90;;;;;;5025246;28;19940;-71
2022/01/16 11:49:38;;;;;;;;;;;6.40;99.90;;;;;;5025215;28;19913;-72
2022/01/16 11:52:09;;;;;;;;;;;6.40;99.90;;;;;;5015670;28;20358;-74
2022/01/16 11:54:35;;;;;;;;;;;6.40;99.90;;;;;;5016589;28;20176;-75
2022/01/16 11:57:17;;;;;;;;;;;6.50;99.90;;;;;;5019557;28;19967;-73
2022/01/16 11:59:43;;;;;;;;;;;6.80;99.90;;;;;;5011313;28;20404;-70
2022/01/16 12:02:08;;;;;;;;;;;6.70;99.90;;;;;;5013233;28;19913;-71
2022/01/16 12:04:34;;;;;;;;;;;6.80;99.90;;;;;;5018941;28;19917;-72
2022/01/16 12:07:11;;;;;;;;;;;6.80;99.90;;;;;;5015474;28;20254;-71
2022/01/16 12:09:38;;;;;;;;;;;6.80;99.90;;;;;;5032303;28;19967;-74
2022/01/16 12:12:10;;;;;;;;;;;6.90;99.90;;;;;;5021740;28;19920;-72
2022/01/16 12:14:47;;;;;;;;;;;6.90;99.90;;;;;;5020686;28;19925;-71
2022/01/16 12:17:47;;;;;;;;;;;7.00;99.90;;;;;;5018435;28;19915;-72
2022/01/16 12:20:15;;;;;;;;;;;7.10;99.90;;;;;;5017870;28;19913;-70
2022/01/16 12:22:41;;;;;;;;;;;7.00;99.90;;;;;;5012427;28;19922;-73
2022/01/16 12:25:08;;;;;;;;;;;7.00;99.90;;;;;;5011782;28;19983;-72
2022/01/16 12:27:37;;;;;;;;;;;7.00;99.90;;;;;;5015566;28;19936;-74
2022/01/16 12:30:08;;;;;;;;;;;6.90;99.90;;;;;;5018411;28;19917;-72
2022/01/16 12:32:53;;;;;;;;;;;6.90;99.90;;;;;;5021291;28;19971;-72
2022/01/16 12:35:37;;;;;;;;;;;7.00;99.90;;;;;;5010506;28;19971;-71
2022/01/16 12:38:14;;;;;;;;;;;7.10;99.90;;;;;;5027610;28;19913;-72
2022/01/16 12:40:43;;;;;;;;;;;7.00;99.90;;;;;;5006654;28;20323;-73
2022/01/16 12:43:12;;;;;;;;;;;7.00;99.90;;;;;;5027864;28;19920;-71
2022/01/16 12:45:38;;;;;;;;;;;7.00;99.90;;;;;;5028763;28;20012;-71
2022/01/16 12:48:04;;;;;;;;;;;7.10;99.90;;;;;;5011265;28;19913;-70
2022/01/16 12:50:30;;;;;;;;;;;7.00;99.90;;;;;;5028684;28;20073;-73
2022/01/16 12:52:55;;;;;;;;;;;6.90;99.90;;;;;;5029160;28;19989;-72
2022/01/16 12:55:27;;;;;;;;;;;6.90;99.90;;;;;;5040023;28;19913;-71
2022/01/16 12:57:52;;;;;;;;;;;6.90;99.90;;;;;;5031954;28;19987;-71
2022/01/16 13:00:18;;;;;;;;;;;6.80;99.90;;;;;;5028325;28;19996;-70
2022/01/16 13:02:44;;;;;;;;;;;6.80;99.90;;;;;;5029012;28;19913;-71
2022/01/16 13:05:09;;;;;;;;;;;6.80;99.90;;;;;;5028264;28;20302;-71
2022/01/16 13:07:37;;;;;;;;;;;6.80;99.90;;;;;;5029392;28;19917;-72
2022/01/16 13:10:03;;;;;;;;;;;6.80;99.90;;;;;;5034886;28;20091;-70
2022/01/16 13:12:30;;;;;;;;;;;6.80;99.90;;;;;;5045597;28;20346;-70
2022/01/16 13:15:02;;;;;;;;;;;6.80;99.90;;;;;;5032790;28;19944;-70
2022/01/16 13:17:29;;;;;;;;;;;6.80;99.90;;;;;;5033922;28;19913;-70
2022/01/16 13:19:57;;;;;;;;;;;6.80;99.90;;;;;;5039508;28;20343;-71
2022/01/16 13:22:37;;;;;;;;;;;6.90;99.90;;;;;;5033840;28;19917;-69
2022/01/16 13:25:04;;;;;;;;;;;6.90;99.90;;;;;;5030945;28;19909;-72
2022/01/16 13:27:31;;;;;;;;;;;6.80;99.90;;;;;;5012549;28;19909;-72
2022/01/16 13:29:57;;;;;;;;;;;6.70;99.90;;;;;;5029917;28;19939;-70
2022/01/16 13:32:26;;;;;;;;;;;6.70;99.90;;;;;;5028278;28;20390;-70
2022/01/16 13:34:54;;;;;;;;;;;6.70;99.90;;;;;;5031781;28;19917;-70
2022/01/16 13:37:21;;;;;;;;;;;6.60;99.90;;;;;;5023752;28;19961;-69
2022/01/16 13:39:48;;;;;;;;;;;6.60;99.90;;;;;;5021232;28;20336;-76
2022/01/16 13:42:39;;;;;;;;;;;6.60;99.90;;;;;;5013803;28;20408;-70
2022/01/16 13:45:19;;;;;;;;;;;6.60;99.90;;;;;;5010655;28;20282;-73
2022/01/16 13:47:52;;;;;;;;;;;6.60;99.90;;;;;;5011482;28;19921;-74
2022/01/16 13:50:18;;;;;;;;;;;6.70;99.90;;;;;;5027255;28;19909;-70
2022/01/16 13:52:51;;;;;;;;;;;6.60;99.90;;;;;;5027567;28;20290;-70
2022/01/16 13:55:16;;;;;;;;;;;6.60;99.90;;;;;;5027114;28;20016;-73
2022/01/16 13:57:42;;;;;;;;;;;6.70;99.90;;;;;;5026944;28;20056;-73
2022/01/16 14:00:08;;;;;;;;;;;6.70;99.90;;;;;;5027671;28;19909;-76
2022/01/16 14:02:34;;;;;;;;;;;6.70;99.90;;;;;;5027466;28;19917;-71
2022/01/16 14:05:01;;;;;;;;;;;6.70;99.90;;;;;;5009289;28;20006;-71
2022/01/16 14:07:26;;;;;;;;;;;6.70;99.90;;;;;;5010437;28;20048;-73
2022/01/16 14:09:52;;;;;;;;;;;6.70;99.90;;;;;;5028068;28;20003;-71
2022/01/16 14:12:19;;;;;;;;;;;6.70;99.90;;;;;;5027287;28;19924;-70
2022/01/16 14:14:44;;;;;;;;;;;6.60;99.90;;;;;;5026663;28;19924;-71
2022/01/16 14:22:11;;;;;;;;;;;6.80;99.90;;;;;;5023977;28;19936;-73
2022/01/16 14:24:47;;;;;;;;;;;6.70;99.90;;;;;;5021921;28;20670;-71
2022/01/16 14:27:19;;;;;;;;;;;6.60;99.90;;;;;;5022785;28;20297;-71
2022/01/16 14:29:45;;;;;;;;;;;6.60;99.90;;;;;;5014356;28;20227;-73
2022/01/16 14:32:11;;;;;;;;;;;6.60;99.90;;;;;;5023156;28;20359;-71
2022/01/16 14:34:38;;;;;;;;;;;6.60;99.90;;;;;;5044132;28;19916;-71
2022/01/16 14:37:04;;;;;;;;;;;6.60;99.90;;;;;;5030940;28;20216;-71
2022/01/16 14:39:30;;;;;;;;;;;6.60;99.90;;;;;;5026592;28;19960;-71
2022/01/16 14:41:56;;;;;;;;;;;6.60;99.90;;;;;;5026995;28;20421;-71
2022/01/16 14:44:31;;;;;;;;;;;6.60;99.90;;;;;;5025894;28;20413;-70
2022/01/16 14:46:58;;;;;;;;;;;6.50;99.90;;;;;;5026623;28;19909;-71
2022/01/16 14:49:24;;;;;;;;;;;6.50;99.90;;;;;;5026977;28;19955;-72
2022/01/16 14:51:50;;;;;;;;;;;6.50;99.90;;;;;;5025912;28;19998;-71
2022/01/16 14:54:15;;;;;;;;;;;6.50;99.90;;;;;;5026200;28;19940;-71
2022/01/16 14:56:42;;;;;;;;;;;6.50;99.90;;;;;;5025081;28;19956;-70
2022/01/16 14:59:08;;;;;;;;;;;6.50;99.90;;;;;;5025447;28;19963;-71
2022/01/16 15:01:33;;;;;;;;;;;6.50;99.90;;;;;;5025887;28;19913;-73
2022/01/16 15:03:59;;;;;;;;;;;6.50;99.90;;;;;;5026520;28;20227;-71
2022/01/16 15:06:25;;;;;;;;;;;6.60;99.90;;;;;;5023889;28;20336;-71
2022/01/16 15:08:52;;;;;;;;;;;6.60;99.90;;;;;;5026536;28;19917;-70
2022/01/16 15:11:18;;;;;;;;;;;6.60;99.90;;;;;;5026112;28;19913;-71
2022/01/16 15:13:43;;;;;;;;;;;6.60;99.90;;;;;;5027035;28;19913;-69
2022/01/16 15:16:11;;;;;;;;;;;6.60;99.90;;;;;;5025088;28;19924;-71
2022/01/16 15:18:38;;;;;;;;;;;6.60;99.90;;;;;;5025747;28;19914;-70
2022/01/16 15:21:04;;;;;;;;;;;6.60;99.90;;;;;;5025364;28;19991;-68
2022/01/16 15:23:30;;;;;;;;;;;6.60;99.90;;;;;;5025722;28;20390;-71